Aviation Digital Data Service (ADDS)

Output produced by METARs form (0639 UTC 24 March 2019)
found at http://www.aviationweather.gov/metar/data/
 
KAAF 240553Z AUTO 00000KT 10SM CLR 09/06 A3022 RMK AO2 SLP232 T00940061 10161 20089 58005
KBOW 240635Z AUTO 09004KT 10SM CLR 15/12 A3022 RMK AO2
KBCT 240247Z 11006KT 10SM CLR 21/12 A3022
KBKV 240553Z AUTO 00000KT 10SM CLR 11/09 A3024 RMK AO2 SLP239 T01110089 10189 20106 58003
KCLW 240635Z AUTO 11004KT 10SM CLR 15/11 A3021 RMK AO2
KCEW 240553Z AUTO 00000KT 10SM CLR 06/03 A3023 RMK AO2 SLP237 T00560033 10183 20056 402720000 58005
KCTY 240615Z AUTO 07003KT 10SM CLR 09/08 A3024 RMK AO2 T00950077
KCGC 240635Z AUTO 00000KT 10SM CLR 11/08 A3023 RMK AO2
KDAB 240553Z 00000KT 10SM BKN250 13/11 A3025 RMK AO2 SLP243 T01330111 10172 20122 58003 $
KDAB 240538Z 2406/2506 VRB03KT P6SM BKN250 
     FM241500 09009KT P6SM FEW030 BKN250 
     FM250000 VRB03KT P6SM FEW050 SCT250
       
K54J 240515Z AUTO 00000KT 10SM CLR 11/06 A3024 RMK AO2 T01090060
KDED 240615Z AUTO 00000KT 10SM CLR 11/09 A3024 RMK AO2
KDTS 240553Z AUTO 00000KT 10SM CLR 12/09 A3022 RMK AO2 SLP231 T01170094 10183 20111 402280072 58006
KFHB 240635Z AUTO 13005KT 10SM CLR 15/12 A3026 RMK AO2 T01510116
KFXE 240553Z 08005KT 10SM FEW040 20/13 A3020 RMK AO2 SLP228 T02000128 10228 20200 57005
KFXE 240520Z 2406/2506 08008KT P6SM FEW040 
     FM241400 10015KT P6SM SCT025 BKN040 
     FM250000 10009KT P6SM SCT025
       
KFLL 240553Z 11010KT 10SM FEW040 22/13 A3019 RMK AO2 SLP224 T02170128 10228 20217 58005
KFLL 240520Z 2406/2512 09009KT P6SM FEW040 
     FM241400 10015KT P6SM SCT025 BKN040 
     FM250200 10010KT P6SM SCT025 BKN035
       
KFMY 240553Z AUTO 05004KT 10SM OVC048 17/13 A3020 RMK AO2 SLP230 T01670128 10200 20161 50001
KFMY 240528Z 2406/2506 VRB04KT P6SM SCT050 BKN250 
     FM241400 11008KT P6SM FEW025 SCT250 
     FM242100 21007KT P6SM FEW040 SCT250 
     FM250100 VRB03KT P6SM FEW250
       
KRSW 240553Z AUTO 07006KT 10SM BKN048 17/13 A3021 RMK AO2 SLP227 T01670128 10194 20161 50000
KRSW 240528Z 2406/2506 VRB03KT P6SM SCT050 BKN250 
     FM241400 11008KT P6SM FEW025 SCT250 
     FM242200 20007KT P6SM FEW040 SCT250 
     FM250100 VRB03KT P6SM FEW250
       
KFPR 240553Z AUTO 00000KT 10SM BKN045 15/13 A3023 RMK AO2 SLP237 T01500133 10189 20128 51002
KFPR 240538Z 2406/2506 07003KT P6SM BKN045 
     FM241400 09008KT P6SM SCT040 BKN250 
     FM241800 11012KT P6SM SCT040 SCT250 
     FM250000 12005KT P6SM FEW030 SCT250
       
KGNV 240553Z AUTO 00000KT 10SM CLR 12/07 A3028 RMK AO2 SLP252 T01170072 10194 20117 58002 $
KGNV 240523Z 2406/2506 00000KT P6SM BKN250 
     FM241400 12008KT P6SM FEW035 BKN250 
     FM250100 12003KT P6SM SCT250
       
KHWO 240553Z AUTO 08004KT 10SM CLR 19/13 A3021 RMK AO2 SLP231 T01940128 10222 20189 58005
KIMM 240615Z AUTO 00000KT 10SM BKN042 13/12 A3019 RMK AO2
KINF 240635Z AUTO 00000KT 10SM CLR 10/10 A3024 RMK AO2
KVQQ 240635Z AUTO 00000KT 10SM CLR A3025 RMK AO2
KVQQ 240523Z 2406/2506 00000KT P6SM BKN250 
     TEMPO 2409/2413 3SM BR 
     FM241400 12006KT P6SM FEW035 BKN250 
     FM250100 12002KT P6SM SCT250
       
KCRG 240553Z AUTO 00000KT 6SM BR CLR 10/10 A3026 RMK AO2 SLP247 T01000100 10150 20100 58002
KCRG 240523Z 2406/2506 00000KT 3SM BR BKN250 
     FM241400 12008KT P6SM FEW035 BKN250 
     FM250100 12003KT P6SM SCT250
       
KHEG 240635Z AUTO 9SM CLR 09/07 A3027 RMK AO2
KJAX 240556Z 00000KT 10SM OVC250 10/09 A3026 RMK AO2 SLP245 T01000089 10150 20089 58003 $
KJAX 240523Z 2406/2506 00000KT P6SM BKN250 
     TEMPO 2409/2413 3SM BR 
     FM241400 12008KT P6SM FEW035 BKN250 
     FM250100 12003KT P6SM SCT250
       
K42J 240635Z AUTO 07005KT 10SM SCT029 SCT034 BKN041 11/10 A3024 RMK A01 TSNO
KLCQ 240615Z AUTO 00000KT 10SM CLR 10/06 A3025 RMK AO2
KLAL 240615Z AUTO 07004KT 10SM CLR 15/11 A3023 RMK AO2
KLAL 240528Z 2406/2506 VRB03KT P6SM SCT250 
     FM241400 11006KT P6SM FEW025 SCT250 
     FM241800 14007KT P6SM FEW030 SCT250 
     FM250200 VRB03KT P6SM FEW250 AMD NOT SKED TIL 241200
       
KX07 240635Z AUTO 08007KT 10SM FEW042 16/13 A3024 RMK A01
KLEE 240553Z AUTO 00000KT 10SM CLR 15/09 A3026 RMK AO2 SLP244 T01500089 10200 20144 58001
KLEE 240538Z 2406/2506 06003KT P6SM BKN250 
     FM241400 10006KT P6SM FEW030 BKN250 
     FM241700 14007KT P6SM FEW040 BKN250 
     FM242200 11008KT P6SM SCT060 BKN250 
     FM250200 VRB03KT P6SM FEW060 SCT250
       
K24J 240635Z AUTO 00000KT 10SM CLR 09/06 A3024 RMK A01
KMTH 240553Z AUTO 08004KT 10SM SCT036 23/16 A3016 RMK AO2 SLP213 T02330161 10239 20228 58009
KMTH 240523Z 2406/2506 07007KT P6SM SCT030 
     TEMPO 2407/2411 BKN030 
     FM241300 09011G17KT P6SM SCT030 SCT100 
     FM241900 10012G18KT P6SM SCT030 BKN100
       
KMKY 240556Z AUTO 03004KT 10SM FEW042 17/14 A3021 RMK AO2 SLP230 T01670144 10200 20167 58005
KMAI 240553Z AUTO 00000KT 10SM CLR 11/07 A3022 RMK AO2 SLP233 T01060067 10217 20106 402500044 58003
KMLB 240553Z AUTO 04005KT 10SM CLR 18/15 A3024 RMK AO2 SLP238 T01830150 10194 20183 51001
KMLB 240538Z 2406/2506 03005KT P6SM SKC 
     FM241500 10010KT P6SM SCT040 BKN250 
     FM250000 12007KT P6SM FEW030 SCT250
       
KTMB 240553Z AUTO 08003KT 10SM CLR 17/12 A3019 RMK AO2 SLP223 T01720122 10211 20161 58006
KTMB 240520Z 2406/2506 09007KT P6SM FEW040 
     FM241400 10015KT P6SM SCT025 BKN040 
     FM250000 10008KT P6SM SCT025
       
KMIA 240553Z 10006KT 10SM FEW040 20/12 A3020 RMK AO2 SLP225 T02000122 10222 20194 58005
KMIA 240520Z 2406/2512 10008KT P6SM FEW040 
     FM241400 10015KT P6SM SCT025 BKN040 
     FM250200 10010KT P6SM SCT025 BKN035
       
KOPF 240553Z AUTO 08003KT 10SM CLR 19/13 A3020 RMK AO2 SLP229 T01940128 10222 20183 58005
KOPF 240520Z 2406/2506 09007KT P6SM FEW040 
     FM241400 10015KT P6SM SCT025 BKN040 
     FM250000 10009KT P6SM SCT025
       
KAPF 240553Z AUTO 00000KT 10SM FEW045 17/15 A3020 RMK AO2 SLP225 T01720150 10200 20172 58004 $
KAPF 240520Z 2406/2506 07004KT P6SM SCT040 
     FM241400 09012KT P6SM FEW040 SCT250 
     FM241800 27010KT P6SM SCT040 
     FM250200 07004KT P6SM SCT035
       
KEVB 240147Z 05005KT 10SM CLR 15/12 A3026 RMK LAST
KOCF 240551Z AUTO 00000KT 10SM CLR 12/08 A3026 RMK AO2 SLP248 T01170078 10222 20117 58001 $
KOBE 240635Z AUTO 00000KT 7SM CLR 12/12 A3022 RMK AO2
KORL 240553Z AUTO 00000KT 10SM CLR 15/12 A3024 RMK AO2 SLP244 T01500122 10206 20150 58001
KISM 240556Z AUTO 08003KT 10SM CLR 16/13 A3026 RMK AO2 SLP248 6//// T01560128 10217 20156 50001 PNO $
KISM 240538Z 2406/2506 06004KT P6SM BKN250 
     FM241400 11007KT P6SM FEW030 BKN250 
     FM241900 13011KT P6SM SCT050 BKN250 
     FM250100 12005KT P6SM FEW060 SCT250
       
KMCO 240553Z 06003KT 10SM OVC300 16/12 A3025 RMK AO2 SLP241 T01610122 10206 20150 50001
KMCO 240538Z 2406/2512 05003KT P6SM BKN250 
     FM241400 09008KT P6SM FEW030 BKN250 
     FM241800 12010KT P6SM SCT050 BKN250 
     FM250100 12005KT P6SM FEW060 SCT250
       
KSFB 240553Z AUTO 06003KT 10SM CLR 14/12 A3025 RMK AO2 SLP240 T01440117 10183 20139 58001 $
KSFB 240538Z 2406/2506 05003KT P6SM BKN250 
     FM241400 10007KT P6SM FEW030 BKN250 
     FM241900 13010KT P6SM SCT050 BKN250 
     FM250100 14005KT P6SM FEW060 SCT250
       
K28J 240635Z AUTO 00000KT 9SM FEW032 BKN039 08/08 A3025 RMK AO2
KECP 240553Z AUTO 00000KT 10SM CLR 09/07 A3022 RMK AO2 SLP244 60000 T00890072 10167 20083 402440033 58005
KECP 240520Z 2406/2506 00000KT P6SM SKC 
     FM241500 17007KT P6SM SCT250 
     FM250000 20003KT P6SM SCT250
       
KPNS 240553Z AUTO 00000KT 10SM CLR 11/09 A3021 RMK AO2 SLP231 T01110094 10178 20106 402330067 58007
KPNS 240520Z 2406/2506 00000KT P6SM SCT250 
     FM241500 13005KT P6SM SCT250
       
K40J 240615Z AUTO 10003KT 10SM CLR 11/07 A3025 RMK AO2 T01130074
KPCM 240635Z AUTO 00000KT 10SM CLR 16/12 A3024 RMK AO2
KPMP 240553Z AUTO 09009KT 10SM SCT041 22/13 A3020 RMK AO2 SLP228 T02220133 10233 20217 56005
KPGD 240553Z AUTO 08003KT 10SM CLR 13/11 A3023 RMK AO2 SLP238 T01280111 10200 20128 50002
KPGD 240528Z 2406/2506 VRB04KT P6SM FEW250 
     FM241400 11009KT P6SM FEW025 FEW250 
     FM242100 22008KT P6SM FEW040 SCT250 
     FM250200 VRB03KT P6SM FEW250
       
K2J9 240635Z AUTO 00000KT 10SM CLR 10/08 A3023 RMK AO2
KSGJ 240556Z AUTO 00000KT 10SM CLR 12/09 A3027 RMK AO2 SLP248 T01220094 10156 20117 58004
KSGJ 240523Z 2406/2506 06004KT P6SM BKN250 
     TEMPO 2409/2413 3SM BR 
     FM241400 09008KT P6SM FEW030 BKN250 
     FM250100 12005KT P6SM SCT250
       
KSPG 240553Z AUTO 03004KT 10SM CLR 18/13 A3020 RMK AO2 SLP226 T01830128 10206 20178 58001
KPIE 240553Z AUTO 10006KT 10SM CLR 17/12 A3022 RMK AO2 SLP232 T01720117 10183 20144 58001 $
KPIE 240528Z 2406/2506 VRB05KT P6SM SCT250 
     FM241500 12008KT P6SM FEW025 SCT250 
     FM242100 31007KT P6SM FEW040 SCT250 
     FM250200 VRB03KT P6SM FEW250
       
KSRQ 240553Z AUTO 07005KT 10SM CLR 16/12 A3020 RMK AO2 SLP226 T01560117 10194 20150 50000
KSRQ 240528Z 2406/2506 08005KT P6SM SCT250 
     FM241400 11009KT P6SM FEW025 SCT250 
     FM241900 24008KT P6SM FEW040 SCT250 
     FM242200 28007KT P6SM FEW050 SCT250 
     FM250200 VRB03KT P6SM FEW250
       
KSEF 240615Z AUTO 04003KT 10SM CLR 14/12 A3023 RMK AO2 T01380121
KSUA 240635Z AUTO 10003KT 10SM BKN044 18/13 A3023 RMK AO2
KSUA 240538Z 2406/2506 VRB03KT P6SM BKN040 
     FM241400 10010KT P6SM SCT040 BKN250 
     FM241800 12012G18KT P6SM SCT040 SCT250 
     FM250000 12005KT P6SM FEW030 SCT250
       
KTLH 240553Z AUTO 00000KT 10SM CLR 09/06 A3023 RMK AO2 SLP235 T00890056 10206 20089 58002 $
KTLH 240520Z 2406/2506 00000KT P6SM SKC 
     FM241500 17006KT P6SM SCT250 
     FM250000 00000KT P6SM SCT250
       
KTPF 240635Z AUTO 10005KT 10SM OVC110 18/13 A3022 RMK AO2
KVDF 240635Z AUTO 00000KT 10SM CLR 12/11 A3023 RMK AO2
KTPA 240553Z 11009G15KT 10SM CLR 19/12 A3022 RMK AO2 SLP233 60003 T01890122 10217 20167 58001
KTPA 240528Z 2406/2512 VRB03KT P6SM SCT250 
     FM241400 11007KT P6SM FEW030 SCT250 
     FM241800 24008KT P6SM FEW040 SCT250 
     FM242200 29007KT P6SM FEW050 SCT250 
     FM250200 VRB03KT P6SM FEW250
       
KTIX 240046Z 05005KT 7SM CLR 19/14 A3023
KTIX 240538Z 2406/2506 05005KT P6SM SKC 
     FM241500 09009KT P6SM FEW030 BKN250 
     FM250000 12005KT P6SM FEW050 SCT250 AMD NOT SKED TIL 241100
       
KVNC 240635Z AUTO 06006KT 10SM SCT045 15/12 A3021 RMK AO2
KVRB 240626Z AUTO 00000KT 3SM BR CLR 13/11 A3022 RMK AO2 T01280111
KVRB 240538Z 2406/2506 07003KT P6SM SCT045 SCT250 
     FM241400 10008KT P6SM SCT040 BKN250 
     FM241800 11012KT P6SM SCT040 SCT250 
     FM250000 12005KT P6SM FEW030 SCT250
       
KF45 240615Z AUTO 00000KT 10SM BKN043 15/15 A3021 RMK AO2
KLNA 240635Z AUTO 07004KT 10SM BKN038 BKN045 22/15 A3021 RMK AO2 T02160145
KPBI 240553Z 07007KT 10SM SCT042 22/13 A3022 RMK AO2 SLP234 T02170128 10222 20194 55000
KPBI 240520Z 2406/2506 10008KT P6SM SCT035 SCT250 
     FM241400 10014KT P6SM SCT025 BKN040 
     FM250000 09009KT P6SM SCT025
       
KGIF 240553Z AUTO 08006KT 10SM CLR 16/13 A3025 RMK AO2 SLP240 T01610128 10222 20161 50002
KZPH 240615Z AUTO 00000KT 10SM CLR 13/11 A3024 RMK AO2 T01260107 PWINO